WXM80 ListenWXM80 Stop

You find our weather info also at:

UK Metoffice

WeatherCloud

Weather Underground

Northeastern Weather Network

AWEKAS

Citizen Weather Observer Program (CWOP)

HAMweather, WeatherForYou, PWS Weather


Weather Underground History page Text

Daily Summary for October 22, 2017 Units:  Both    English   Metric
« Previous Day
Next Day »
Daily Weekly Monthly Yearly Custom
  High: Low: Average:
Temperature: 76.6 °F /  24.8 °C 49.7 °F /  9.8 °C 61.4 °F /  16.3 °C
Dew Point: 63.7 °F /  17.6 °C 47.2 °F /  8.4 °C 53.6 °F /  12 °C
Humidity: 98 % 43 % 78 %
Wind Speed: 4.3 mph /  6.9 km/h - 0.4 mph /  0.6 km/h
Wind Gust: 6.9 mph /  11.1 km/h - -
Wind:- - SE
Pressure: 30.40 in /  1029.3 hPa 30.33 in /  1027 hPa -
Precipitation: 0.00 in /  0 mm    
Historical Graphs
 
 
Tabular Data for October 22, 2017
Time Temperature Dew Point Pressure Wind Wind Speed Wind Gust Humidity Rainfall Rate (Hourly)
00:03 61.0 °F /  16.1 °C 52.7 °F /  11.5 °C 30.33 in /  1027 hPa WSW 2.1 mph /  3.4 km/h 3.5 mph /  5.6 km/h 74 % 0.00 in /  0 mm
00:06 60.9 °F /  16.1 °C 52.6 °F /  11.4 °C 30.33 in /  1027 hPa WSW 2.1 mph /  3.4 km/h 3.5 mph /  5.6 km/h 74 % 0.00 in /  0 mm
00:11 60.8 °F /  16 °C 52.5 °F /  11.4 °C 30.33 in /  1027 hPa WSW 0.9 mph /  1.4 km/h 3.5 mph /  5.6 km/h 74 % 0.00 in /  0 mm
00:16 60.7 °F /  15.9 °C 52.4 °F /  11.3 °C 30.33 in /  1027 hPa WSW 0.3 mph /  0.5 km/h 1.2 mph /  1.9 km/h 74 % 0.00 in /  0 mm
00:21 60.7 °F /  15.9 °C 52.4 °F /  11.3 °C 30.33 in /  1027 hPa Calm   3.5 mph /  5.6 km/h 74 % 0.00 in /  0 mm
00:26 60.6 °F /  15.9 °C 52.3 °F /  11.3 °C 30.33 in /  1027 hPa WSW 1.5 mph /  2.4 km/h 3.5 mph /  5.6 km/h 74 % 0.00 in /  0 mm
00:31 60.5 °F /  15.8 °C 52.2 °F /  11.2 °C 30.33 in /  1027 hPa Calm   2.3 mph /  3.7 km/h 74 % 0.00 in /  0 mm
00:36 60.5 °F /  15.8 °C 51.8 °F /  11 °C 30.34 in /  1027.3 hPa WSW 0.4 mph /  0.6 km/h 1.2 mph /  1.9 km/h 73 % 0.00 in /  0 mm
00:41 60.4 °F /  15.8 °C 51.7 °F /  10.9 °C 30.33 in /  1027 hPa WSW 0.4 mph /  0.6 km/h 3.5 mph /  5.6 km/h 73 % 0.00 in /  0 mm
00:47 60.3 °F /  15.7 °C 51.6 °F /  10.9 °C 30.34 in /  1027.3 hPa WSW 0.8 mph /  1.3 km/h 3.5 mph /  5.6 km/h 73 % 0.00 in /  0 mm
00:51 60.2 °F /  15.7 °C 51.5 °F /  10.8 °C 30.33 in /  1027 hPa SW 0.1 mph /  0.2 km/h 3.5 mph /  5.6 km/h 73 % 0.00 in /  0 mm
00:57 60.1 °F /  15.6 °C 51.8 °F /  11 °C 30.33 in /  1027 hPa West 1.8 mph /  2.9 km/h 3.5 mph /  5.6 km/h 74 % 0.00 in /  0 mm
01:02 60.0 °F /  15.6 °C 51.3 °F /  10.7 °C 30.33 in /  1027 hPa WSW 2.4 mph /  3.9 km/h 4.6 mph /  7.4 km/h 73 % 0.00 in /  0 mm
01:07 59.9 °F /  15.5 °C 51.2 °F /  10.7 °C 30.33 in /  1027 hPa Calm     73 % 0.00 in /  0 mm
01:12 59.8 °F /  15.4 °C 51.5 °F /  10.8 °C 30.33 in /  1027 hPa Calm   1.2 mph /  1.9 km/h 74 % 0.00 in /  0 mm
01:17 59.7 °F /  15.4 °C 51.4 °F /  10.8 °C 30.33 in /  1027 hPa Calm     74 % 0.00 in /  0 mm
01:22 59.5 °F /  15.3 °C 51.6 °F /  10.9 °C 30.36 in /  1028 hPa Calm     75 % 0.00 in /  0 mm
01:27 59.3 °F /  15.2 °C 51.4 °F /  10.8 °C 30.33 in /  1027 hPa Calm     75 % 0.00 in /  0 mm
01:32 59.1 °F /  15.1 °C 51.2 °F /  10.7 °C 30.33 in /  1027 hPa Calm   1.2 mph /  1.9 km/h 75 % 0.00 in /  0 mm
01:37 58.9 °F /  14.9 °C 51.0 °F /  10.6 °C 30.33 in /  1027 hPa Calm     75 % 0.00 in /  0 mm
01:42 58.6 °F /  14.8 °C 51.1 °F /  10.6 °C 30.34 in /  1027.3 hPa Calm     76 % 0.00 in /  0 mm
01:44 58.5 °F /  14.7 °C 51.0 °F /  10.6 °C 30.34 in /  1027.3 hPa Calm     76 % 0.00 in /  0 mm
01:49 58.2 °F /  14.6 °C 50.7 °F /  10.4 °C 30.33 in /  1027 hPa Calm     76 % 0.00 in /  0 mm
01:54 57.9 °F /  14.4 °C 50.7 °F /  10.4 °C 30.33 in /  1027 hPa Calm     77 % 0.00 in /  0 mm
01:59 57.5 °F /  14.2 °C 50.3 °F /  10.2 °C 30.33 in /  1027 hPa Calm     77 % 0.00 in /  0 mm
02:04 57.2 °F /  14 °C 50.1 °F /  10.1 °C 30.33 in /  1027 hPa Calm     77 % 0.00 in /  0 mm
02:09 56.9 °F /  13.8 °C 50.1 °F /  10.1 °C 30.33 in /  1027 hPa WSW 0.2 mph /  0.3 km/h 1.2 mph /  1.9 km/h 78 % 0.00 in /  0 mm
02:14 56.7 °F /  13.7 °C 49.9 °F /  9.9 °C 30.33 in /  1027 hPa Calm     78 % 0.00 in /  0 mm
02:19 56.4 °F /  13.6 °C 50.0 °F /  10 °C 30.33 in /  1027 hPa Calm     79 % 0.00 in /  0 mm
02:24 56.2 °F /  13.4 °C 49.8 °F /  9.9 °C 30.34 in /  1027.3 hPa Calm     79 % 0.00 in /  0 mm
02:29 56.0 °F /  13.3 °C 49.6 °F /  9.8 °C 30.33 in /  1027 hPa Calm   1.2 mph /  1.9 km/h 79 % 0.00 in /  0 mm
02:35 55.7 °F /  13.2 °C 49.6 °F /  9.8 °C 30.33 in /  1027 hPa WSW 0.1 mph /  0.2 km/h 1.2 mph /  1.9 km/h 80 % 0.00 in /  0 mm
02:40 55.5 °F /  13.1 °C 49.4 °F /  9.7 °C 30.33 in /  1027 hPa Calm     80 % 0.00 in /  0 mm
02:45 55.3 °F /  12.9 °C 49.6 °F /  9.8 °C 30.33 in /  1027 hPa Calm   1.2 mph /  1.9 km/h 81 % 0.00 in /  0 mm
02:50 55.1 °F /  12.8 °C 49.4 °F /  9.7 °C 30.33 in /  1027 hPa Calm     81 % 0.00 in /  0 mm
02:53 55.0 °F /  12.8 °C 49.6 °F /  9.8 °C 30.33 in /  1027 hPa Calm     82 % 0.00 in /  0 mm
02:55 54.9 °F /  12.7 °C 49.5 °F /  9.7 °C 30.33 in /  1027 hPa Calm     82 % 0.00 in /  0 mm
03:00 54.7 °F /  12.6 °C 49.3 °F /  9.6 °C 30.33 in /  1027 hPa Calm     82 % 0.00 in /  0 mm
03:05 54.6 °F /  12.6 °C 49.2 °F /  9.6 °C 30.33 in /  1027 hPa WSW 0.1 mph /  0.2 km/h 1.2 mph /  1.9 km/h 82 % 0.00 in /  0 mm
03:10 54.4 °F /  12.4 °C 49.3 °F /  9.6 °C 30.33 in /  1027 hPa WSW 0.5 mph /  0.8 km/h 1.2 mph /  1.9 km/h 83 % 0.00 in /  0 mm
03:15 54.3 °F /  12.4 °C 49.2 °F /  9.6 °C 30.33 in /  1027 hPa WSW 0.3 mph /  0.5 km/h 1.2 mph /  1.9 km/h 83 % 0.00 in /  0 mm
03:20 54.1 °F /  12.3 °C 49.1 °F /  9.5 °C 30.34 in /  1027.3 hPa Calm     83 % 0.00 in /  0 mm
03:25 54.0 °F /  12.2 °C 49.0 °F /  9.4 °C 30.34 in /  1027.3 hPa Calm     83 % 0.00 in /  0 mm
03:30 53.8 °F /  12.1 °C 48.8 °F /  9.3 °C 30.34 in /  1027.3 hPa Calm     83 % 0.00 in /  0 mm
03:36 53.7 °F /  12.1 °C 49.0 °F /  9.4 °C 30.34 in /  1027.3 hPa Calm     84 % 0.00 in /  0 mm
03:41 53.5 °F /  11.9 °C 48.8 °F /  9.3 °C 30.34 in /  1027.3 hPa Calm     84 % 0.00 in /  0 mm
03:46 53.4 °F /  11.9 °C 48.7 °F /  9.3 °C 30.34 in /  1027.3 hPa Calm     84 % 0.00 in /  0 mm
03:51 53.2 °F /  11.8 °C 48.5 °F /  9.2 °C 30.34 in /  1027.3 hPa Calm   1.0 mph /  1.6 km/h 84 % 0.00 in /  0 mm
03:55 53.0 °F /  11.7 °C 48.6 °F /  9.2 °C 30.34 in /  1027.3 hPa WSW 0.3 mph /  0.5 km/h 1.2 mph /  1.9 km/h 85 % 0.00 in /  0 mm
04:00 52.9 °F /  11.6 °C 48.5 °F /  9.2 °C 30.34 in /  1027.3 hPa WSW 0.5 mph /  0.8 km/h 1.2 mph /  1.9 km/h 85 % 0.00 in /  0 mm
04:06 52.8 °F /  11.6 °C 48.7 °F /  9.3 °C 30.34 in /  1027.3 hPa Calm   1.0 mph /  1.6 km/h 86 % 0.00 in /  0 mm
04:10 52.6 °F /  11.4 °C 48.5 °F /  9.2 °C 30.34 in /  1027.3 hPa Calm     86 % 0.00 in /  0 mm
04:15 52.5 °F /  11.4 °C 48.4 °F /  9.1 °C 30.34 in /  1027.3 hPa Calm   1.2 mph /  1.9 km/h 86 % 0.00 in /  0 mm
04:21 52.4 °F /  11.3 °C 48.3 °F /  9.1 °C 30.34 in /  1027.3 hPa WSW 0.4 mph /  0.6 km/h 1.0 mph /  1.6 km/h 86 % 0.00 in /  0 mm
04:25 52.3 °F /  11.3 °C 48.5 °F /  9.2 °C 30.34 in /  1027.3 hPa Calm     87 % 0.00 in /  0 mm
04:31 52.2 °F /  11.2 °C 48.1 °F /  8.9 °C 30.34 in /  1027.3 hPa Calm     86 % 0.00 in /  0 mm
04:36 52.1 °F /  11.2 °C 48.3 °F /  9.1 °C 30.34 in /  1027.3 hPa Calm     87 % 0.00 in /  0 mm
04:41 52.0 °F /  11.1 °C 48.6 °F /  9.2 °C 30.34 in /  1027.3 hPa Calm     88 % 0.00 in /  0 mm
04:46 51.9 °F /  11.1 °C 48.5 °F /  9.2 °C 30.34 in /  1027.3 hPa Calm   1.0 mph /  1.6 km/h 88 % 0.00 in /  0 mm
04:51 51.9 °F /  11.1 °C 48.5 °F /  9.2 °C 30.34 in /  1027.3 hPa Calm   1.0 mph /  1.6 km/h 88 % 0.00 in /  0 mm
04:56 51.8 °F /  11 °C 48.7 °F /  9.3 °C 30.35 in /  1027.7 hPa Calm   1.0 mph /  1.6 km/h 89 % 0.00 in /  0 mm
05:01 51.7 °F /  10.9 °C 48.6 °F /  9.2 °C 30.35 in /  1027.7 hPa Calm     89 % 0.00 in /  0 mm
05:06 51.6 °F /  10.9 °C 48.2 °F /  9 °C 30.35 in /  1027.7 hPa Calm     88 % 0.00 in /  0 mm
05:11 51.5 °F /  10.8 °C 48.1 °F /  8.9 °C 30.35 in /  1027.7 hPa Calm   1.2 mph /  1.9 km/h 88 % 0.00 in /  0 mm
05:16 51.4 °F /  10.8 °C 48.3 °F /  9.1 °C 30.36 in /  1028 hPa Calm   1.2 mph /  1.9 km/h 89 % 0.00 in /  0 mm
05:21 51.4 °F /  10.8 °C 48.3 °F /  9.1 °C 30.35 in /  1027.7 hPa Calm     89 % 0.00 in /  0 mm
05:26 51.3 °F /  10.7 °C 48.2 °F /  9 °C 30.35 in /  1027.7 hPa Calm     89 % 0.00 in /  0 mm
05:31 51.3 °F /  10.7 °C 48.2 °F /  9 °C 30.35 in /  1027.7 hPa Calm     89 % 0.00 in /  0 mm
05:36 51.2 °F /  10.7 °C 48.4 °F /  9.1 °C 30.36 in /  1028 hPa Calm   1.2 mph /  1.9 km/h 90 % 0.00 in /  0 mm
05:41 51.2 °F /  10.7 °C 48.4 °F /  9.1 °C 30.36 in /  1028 hPa Calm     90 % 0.00 in /  0 mm
05:46 51.1 °F /  10.6 °C 48.3 °F /  9.1 °C 30.35 in /  1027.7 hPa Calm     90 % 0.00 in /  0 mm
05:51 51.0 °F /  10.6 °C 48.2 °F /  9 °C 30.35 in /  1027.7 hPa WSW 0.2 mph /  0.3 km/h   90 % 0.00 in /  0 mm
05:56 51.0 °F /  10.6 °C 48.2 °F /  9 °C 30.35 in /  1027.7 hPa Calm     90 % 0.00 in /  0 mm
06:01 50.9 °F /  10.5 °C 47.8 °F /  8.8 °C 30.36 in /  1028 hPa WSW 0.1 mph /  0.2 km/h 1.2 mph /  1.9 km/h 89 % 0.00 in /  0 mm
06:07 50.8 °F /  10.4 °C 48.0 °F /  8.9 °C 30.36 in /  1028 hPa Calm     90 % 0.00 in /  0 mm
06:12 50.7 °F /  10.4 °C 47.9 °F /  8.8 °C 30.36 in /  1028 hPa Calm     90 % 0.00 in /  0 mm
06:17 50.7 °F /  10.4 °C 47.9 °F /  8.8 °C 30.36 in /  1028 hPa Calm     90 % 0.00 in /  0 mm
06:22 50.6 °F /  10.3 °C 47.8 °F /  8.8 °C 30.36 in /  1028 hPa WSW 0.2 mph /  0.3 km/h 1.2 mph /  1.9 km/h 90 % 0.00 in /  0 mm
06:27 50.5 °F /  10.3 °C 47.7 °F /  8.7 °C 30.36 in /  1028 hPa WSW 0.1 mph /  0.2 km/h 1.2 mph /  1.9 km/h 90 % 0.00 in /  0 mm
06:37 50.4 °F /  10.2 °C 47.9 °F /  8.8 °C 30.36 in /  1028 hPa Calm     91 % 0.00 in /  0 mm
06:42 50.3 °F /  10.2 °C 47.8 °F /  8.8 °C 30.36 in /  1028 hPa Calm     91 % 0.00 in /  0 mm
06:47 50.3 °F /  10.2 °C 47.5 °F /  8.6 °C 30.36 in /  1028 hPa WSW 0.2 mph /  0.3 km/h 1.0 mph /  1.6 km/h 90 % 0.00 in /  0 mm
06:52 50.2 °F /  10.1 °C 47.4 °F /  8.6 °C 30.36 in /  1028 hPa Calm   1.2 mph /  1.9 km/h 90 % 0.00 in /  0 mm
06:57 50.1 °F /  10.1 °C 47.6 °F /  8.7 °C 30.36 in /  1028 hPa Calm   1.2 mph /  1.9 km/h 91 % 0.00 in /  0 mm
07:02 50.0 °F /  10 °C 47.5 °F /  8.6 °C 30.36 in /  1028 hPa WSW 0.2 mph /  0.3 km/h 1.2 mph /  1.9 km/h 91 % 0.00 in /  0 mm
07:07 50.0 °F /  10 °C 47.5 °F /  8.6 °C 30.36 in /  1028 hPa Calm     91 % 0.00 in /  0 mm
07:12 49.9 °F /  9.9 °C 47.4 °F /  8.6 °C 30.36 in /  1028 hPa WSW 0.1 mph /  0.2 km/h 1.2 mph /  1.9 km/h 91 % 0.00 in /  0 mm
07:17 49.9 °F /  9.9 °C 47.4 °F /  8.6 °C 30.37 in /  1028.3 hPa Calm     91 % 0.00 in /  0 mm
07:22 49.8 °F /  9.9 °C 47.3 °F /  8.5 °C 30.37 in /  1028.3 hPa Calm     91 % 0.00 in /  0 mm
07:27 49.8 °F /  9.9 °C 47.3 °F /  8.5 °C 30.36 in /  1028 hPa Calm     91 % 0.00 in /  0 mm
07:32 49.7 °F /  9.8 °C 47.2 °F /  8.4 °C 30.37 in /  1028.3 hPa Calm   1.0 mph /  1.6 km/h 91 % 0.00 in /  0 mm
07:37 49.7 °F /  9.8 °C 47.5 °F /  8.6 °C 30.37 in /  1028.3 hPa Calm     92 % 0.00 in /  0 mm
07:42 49.8 °F /  9.9 °C 47.6 °F /  8.7 °C 30.37 in /  1028.3 hPa Calm     92 % 0.00 in /  0 mm
07:47 49.9 °F /  9.9 °C 48.0 °F /  8.9 °C 30.38 in /  1028.7 hPa WSW 0.2 mph /  0.3 km/h 1.0 mph /  1.6 km/h 93 % 0.00 in /  0 mm
07:52 49.9 °F /  9.9 °C 48.0 °F /  8.9 °C 30.38 in /  1028.7 hPa Calm     93 % 0.00 in /  0 mm
07:57 50.1 °F /  10.1 °C 48.2 °F /  9 °C 30.38 in /  1028.7 hPa Calm     93 % 0.00 in /  0 mm
08:02 50.1 °F /  10.1 °C 48.4 °F /  9.1 °C 30.38 in /  1028.7 hPa Calm     94 % 0.00 in /  0 mm
08:03 50.2 °F /  10.1 °C 48.5 °F /  9.2 °C 30.38 in /  1028.7 hPa Calm     94 % 0.00 in /  0 mm
08:08 50.3 °F /  10.2 °C 48.6 °F /  9.2 °C 30.39 in /  1029 hPa Calm     94 % 0.00 in /  0 mm
08:14 50.5 °F /  10.3 °C 48.8 °F /  9.3 °C 30.39 in /  1029 hPa Calm     94 % 0.00 in /  0 mm
08:19 50.7 °F /  10.4 °C 49.0 °F /  9.4 °C 30.39 in /  1029 hPa Calm     94 % 0.00 in /  0 mm
08:24 50.9 °F /  10.5 °C 49.5 °F /  9.7 °C 30.39 in /  1029 hPa Calm     95 % 0.00 in /  0 mm
08:29 51.1 °F /  10.6 °C 49.7 °F /  9.8 °C 30.39 in /  1029 hPa Calm     95 % 0.00 in /  0 mm
08:34 51.4 °F /  10.8 °C 50.0 °F /  10 °C 30.39 in /  1029 hPa Calm     95 % 0.00 in /  0 mm
08:39 51.8 °F /  11 °C 50.7 °F /  10.4 °C 30.40 in /  1029.3 hPa Calm     96 % 0.00 in /  0 mm
08:44 52.1 °F /  11.2 °C 51.0 °F /  10.6 °C 30.40 in /  1029.3 hPa Calm     96 % 0.00 in /  0 mm
08:49 52.5 °F /  11.4 °C 51.4 °F /  10.8 °C 30.39 in /  1029 hPa Calm     96 % 0.00 in /  0 mm
08:54 53.1 °F /  11.7 °C 52.0 °F /  11.1 °C 30.39 in /  1029 hPa Calm     96 % 0.00 in /  0 mm
09:04 54.2 °F /  12.3 °C 53.4 °F /  11.9 °C 30.40 in /  1029.3 hPa Calm     97 % 0.00 in /  0 mm
09:09 54.7 °F /  12.6 °C 53.9 °F /  12.2 °C 30.40 in /  1029.3 hPa Calm     97 % 0.00 in /  0 mm
09:14 55.3 °F /  12.9 °C 54.5 °F /  12.5 °C 30.40 in /  1029.3 hPa Calm     97 % 0.00 in /  0 mm
09:19 56.0 °F /  13.3 °C 55.2 °F /  12.9 °C 30.40 in /  1029.3 hPa NE 1.2 mph /  1.9 km/h 2.3 mph /  3.7 km/h 97 % 0.00 in /  0 mm
09:24 56.7 °F /  13.7 °C 55.9 °F /  13.3 °C 30.40 in /  1029.3 hPa NE 0.3 mph /  0.5 km/h 1.2 mph /  1.9 km/h 97 % 0.00 in /  0 mm
09:29 57.3 °F /  14.1 °C 56.7 °F /  13.7 °C 30.40 in /  1029.3 hPa Calm   1.2 mph /  1.9 km/h 98 % 0.00 in /  0 mm
09:34 57.8 °F /  14.3 °C 57.2 °F /  14 °C 30.40 in /  1029.3 hPa NE 0.4 mph /  0.6 km/h 2.0 mph /  3.2 km/h 98 % 0.00 in /  0 mm
09:39 58.3 °F /  14.6 °C 57.7 °F /  14.3 °C 30.40 in /  1029.3 hPa NE 1.0 mph /  1.6 km/h 2.3 mph /  3.7 km/h 98 % 0.00 in /  0 mm
09:44 58.7 °F /  14.8 °C 58.1 °F /  14.5 °C 30.40 in /  1029.3 hPa Calm   1.2 mph /  1.9 km/h 98 % 0.00 in /  0 mm
09:49 59.1 °F /  15.1 °C 58.5 °F /  14.7 °C 30.40 in /  1029.3 hPa Calm   1.2 mph /  1.9 km/h 98 % 0.00 in /  0 mm
09:54 59.4 °F /  15.2 °C 58.5 °F /  14.7 °C 30.40 in /  1029.3 hPa Calm     97 % 0.00 in /  0 mm
09:55 59.5 °F /  15.3 °C 58.6 °F /  14.8 °C 30.40 in /  1029.3 hPa Calm     97 % 0.00 in /  0 mm
10:00 60.0 °F /  15.6 °C 59.4 °F /  15.2 °C 30.40 in /  1029.3 hPa Calm     98 % 0.00 in /  0 mm
10:05 60.6 °F /  15.9 °C 60.0 °F /  15.6 °C 30.40 in /  1029.3 hPa Calm     98 % 0.00 in /  0 mm
10:10 61.1 °F /  16.2 °C 60.5 °F /  15.8 °C 30.40 in /  1029.3 hPa Calm     98 % 0.00 in /  0 mm
10:15 61.6 °F /  16.4 °C 61.0 °F /  16.1 °C 30.39 in /  1029 hPa ENE 0.3 mph /  0.5 km/h 2.3 mph /  3.7 km/h 98 % 0.00 in /  0 mm
10:20 62.0 °F /  16.7 °C 61.1 °F /  16.2 °C 30.40 in /  1029.3 hPa NNE 0.5 mph /  0.8 km/h 3.0 mph /  4.8 km/h 97 % 0.00 in /  0 mm
10:25 62.3 °F /  16.8 °C 61.4 °F /  16.3 °C 30.40 in /  1029.3 hPa NNE 0.9 mph /  1.4 km/h 2.3 mph /  3.7 km/h 97 % 0.00 in /  0 mm
10:26 62.4 °F /  16.9 °C 61.5 °F /  16.4 °C 30.40 in /  1029.3 hPa NNE 0.9 mph /  1.4 km/h 2.3 mph /  3.7 km/h 97 % 0.00 in /  0 mm
10:31 62.7 °F /  17.1 °C 61.5 °F /  16.4 °C 30.39 in /  1029 hPa ENE 1.5 mph /  2.4 km/h 3.5 mph /  5.6 km/h 96 % 0.00 in /  0 mm
10:36 63.0 °F /  17.2 °C 61.5 °F /  16.4 °C 30.39 in /  1029 hPa ENE 0.3 mph /  0.5 km/h 1.2 mph /  1.9 km/h 95 % 0.00 in /  0 mm
10:41 63.4 °F /  17.4 °C 61.6 °F /  16.4 °C 30.40 in /  1029.3 hPa ENE 0.1 mph /  0.2 km/h 3.5 mph /  5.6 km/h 94 % 0.00 in /  0 mm
10:46 63.7 °F /  17.6 °C 61.6 °F /  16.4 °C 30.39 in /  1029 hPa ENE 0.9 mph /  1.4 km/h 2.3 mph /  3.7 km/h 93 % 0.00 in /  0 mm
10:51 64.0 °F /  17.8 °C 61.3 °F /  16.3 °C 30.39 in /  1029 hPa ENE 0.2 mph /  0.3 km/h 1.2 mph /  1.9 km/h 91 % 0.00 in /  0 mm
10:56 64.3 °F /  17.9 °C 61.3 °F /  16.3 °C 30.39 in /  1029 hPa Calm     90 % 0.00 in /  0 mm
11:01 64.7 °F /  18.2 °C 61.4 °F /  16.3 °C 30.39 in /  1029 hPa Calm     89 % 0.00 in /  0 mm
11:06 65.1 °F /  18.4 °C 61.1 °F /  16.2 °C 30.39 in /  1029 hPa ENE 0.1 mph /  0.2 km/h 1.2 mph /  1.9 km/h 87 % 0.00 in /  0 mm
11:11 65.6 °F /  18.7 °C 60.6 °F /  15.9 °C 30.39 in /  1029 hPa SE 0.9 mph /  1.4 km/h 3.5 mph /  5.6 km/h 84 % 0.00 in /  0 mm
11:16 66.3 °F /  19.1 °C 61.0 °F /  16.1 °C 30.38 in /  1028.7 hPa Calm     83 % 0.00 in /  0 mm
11:21 67.6 °F /  19.8 °C 62.6 °F /  17 °C 30.38 in /  1028.7 hPa NNE 1.7 mph /  2.7 km/h 3.0 mph /  4.8 km/h 84 % 0.00 in /  0 mm
11:26 68.6 °F /  20.3 °C 61.8 °F /  16.6 °C 30.38 in /  1028.7 hPa North 3.2 mph /  5.1 km/h 3.5 mph /  5.6 km/h 79 % 0.00 in /  0 mm
11:31 69.9 °F /  21.1 °C 63.1 °F /  17.3 °C 30.38 in /  1028.7 hPa North 0.5 mph /  0.8 km/h 1.2 mph /  1.9 km/h 79 % 0.00 in /  0 mm
11:36 71.5 °F /  21.9 °C 62.8 °F /  17.1 °C 30.38 in /  1028.7 hPa NE 0.7 mph /  1.1 km/h 2.3 mph /  3.7 km/h 74 % 0.00 in /  0 mm
11:41 72.7 °F /  22.6 °C 62.8 °F /  17.1 °C 30.38 in /  1028.7 hPa NNE 2.0 mph /  3.2 km/h 3.5 mph /  5.6 km/h 71 % 0.00 in /  0 mm
11:46 73.6 °F /  23.1 °C 63.6 °F /  17.6 °C 30.38 in /  1028.7 hPa North 3.7 mph /  6 km/h 4.6 mph /  7.4 km/h 71 % 0.00 in /  0 mm
11:51 74.5 °F /  23.6 °C 63.7 °F /  17.6 °C 30.38 in /  1028.7 hPa North 2.2 mph /  3.5 km/h 3.5 mph /  5.6 km/h 69 % 0.00 in /  0 mm
11:56 75.3 °F /  24.1 °C 63.2 °F /  17.3 °C 30.38 in /  1028.7 hPa North 3.2 mph /  5.1 km/h 4.6 mph /  7.4 km/h 66 % 0.00 in /  0 mm
12:01 75.9 °F /  24.4 °C 62.8 °F /  17.1 °C 30.38 in /  1028.7 hPa ENE 2.7 mph /  4.3 km/h 3.5 mph /  5.6 km/h 64 % 0.00 in /  0 mm
12:06 76.1 °F /  24.5 °C 63.0 °F /  17.2 °C 30.38 in /  1028.7 hPa NNE 2.0 mph /  3.2 km/h 3.5 mph /  5.6 km/h 64 % 0.00 in /  0 mm
12:11 76.5 °F /  24.7 °C 62.5 °F /  16.9 °C 30.38 in /  1028.7 hPa North 2.9 mph /  4.7 km/h 4.6 mph /  7.4 km/h 62 % 0.00 in /  0 mm
12:17 76.6 °F /  24.8 °C 62.6 °F /  17 °C 30.38 in /  1028.7 hPa NNE 4.3 mph /  6.9 km/h 5.8 mph /  9.3 km/h 62 % 0.00 in /  0 mm
12:22 76.6 °F /  24.8 °C 63.1 °F /  17.3 °C 30.38 in /  1028.7 hPa NE 2.2 mph /  3.5 km/h 3.5 mph /  5.6 km/h 63 % 0.00 in /  0 mm
12:27 76.4 °F /  24.7 °C 63.3 °F /  17.4 °C 30.38 in /  1028.7 hPa NNE 2.6 mph /  4.2 km/h 5.8 mph /  9.3 km/h 64 % 0.00 in /  0 mm
12:32 76.1 °F /  24.5 °C 63.0 °F /  17.2 °C 30.38 in /  1028.7 hPa North 3.5 mph /  5.6 km/h 5.8 mph /  9.3 km/h 64 % 0.00 in /  0 mm
12:37 75.9 °F /  24.4 °C 62.8 °F /  17.1 °C 30.38 in /  1028.7 hPa ENE 1.2 mph /  1.9 km/h 3.5 mph /  5.6 km/h 64 % 0.00 in /  0 mm
12:42 75.7 °F /  24.3 °C 61.3 °F /  16.3 °C 30.38 in /  1028.7 hPa NNE 0.5 mph /  0.8 km/h 2.3 mph /  3.7 km/h 61 % 0.00 in /  0 mm
12:47 75.5 °F /  24.2 °C 60.6 °F /  15.9 °C 30.38 in /  1028.7 hPa NE 2.0 mph /  3.2 km/h 3.5 mph /  5.6 km/h 60 % 0.00 in /  0 mm
12:52 75.4 °F /  24.1 °C 61.0 °F /  16.1 °C 30.37 in /  1028.3 hPa NNE 2.0 mph /  3.2 km/h 3.5 mph /  5.6 km/h 61 % 0.00 in /  0 mm
12:57 75.5 °F /  24.2 °C 62.0 °F /  16.7 °C 30.37 in /  1028.3 hPa NNE 0.5 mph /  0.8 km/h 1.2 mph /  1.9 km/h 63 % 0.00 in /  0 mm
13:02 75.8 °F /  24.3 °C 61.8 °F /  16.6 °C 30.37 in /  1028.3 hPa NNE 2.8 mph /  4.5 km/h 3.5 mph /  5.6 km/h 62 % 0.00 in /  0 mm
13:07 76.0 °F /  24.4 °C 62.0 °F /  16.7 °C 30.37 in /  1028.3 hPa NE 3.4 mph /  5.5 km/h 3.5 mph /  5.6 km/h 62 % 0.00 in /  0 mm
13:12 76.1 °F /  24.5 °C 61.2 °F /  16.2 °C 30.37 in /  1028.3 hPa ENE 1.4 mph /  2.3 km/h 2.3 mph /  3.7 km/h 60 % 0.00 in /  0 mm
13:17 76.2 °F /  24.6 °C 62.7 °F /  17.1 °C 30.37 in /  1028.3 hPa North 1.5 mph /  2.4 km/h 3.5 mph /  5.6 km/h 63 % 0.00 in /  0 mm
13:22 76.2 °F /  24.6 °C 61.8 °F /  16.6 °C 30.36 in /  1028 hPa NE 1.9 mph /  3.1 km/h 3.5 mph /  5.6 km/h 61 % 0.00 in /  0 mm
13:27 76.0 °F /  24.4 °C 63.4 °F /  17.4 °C 30.36 in /  1028 hPa North 0.7 mph /  1.1 km/h 3.5 mph /  5.6 km/h 65 % 0.00 in /  0 mm
13:32 75.9 °F /  24.4 °C 61.5 °F /  16.4 °C 30.37 in /  1028.3 hPa Calm   2.3 mph /  3.7 km/h 61 % 0.00 in /  0 mm
13:38 75.9 °F /  24.4 °C 62.4 °F /  16.9 °C 30.36 in /  1028 hPa NE 0.8 mph /  1.3 km/h 3.5 mph /  5.6 km/h 63 % 0.00 in /  0 mm
13:43 75.8 °F /  24.3 °C 62.3 °F /  16.8 °C 30.36 in /  1028 hPa NE 2.9 mph /  4.7 km/h 4.0 mph /  6.4 km/h 63 % 0.00 in /  0 mm
13:48 75.8 °F /  24.3 °C 62.3 °F /  16.8 °C 30.35 in /  1027.7 hPa NE 0.1 mph /  0.2 km/h 1.2 mph /  1.9 km/h 63 % 0.00 in /  0 mm
13:53 76.0 °F /  24.4 °C 62.9 °F /  17.2 °C 30.35 in /  1027.7 hPa NNE 0.1 mph /  0.2 km/h 2.3 mph /  3.7 km/h 64 % 0.00 in /  0 mm
13:58 75.8 °F /  24.3 °C 61.4 °F /  16.3 °C 30.35 in /  1027.7 hPa ESE 0.8 mph /  1.3 km/h 3.5 mph /  5.6 km/h 61 % 0.00 in /  0 mm
14:03 75.7 °F /  24.3 °C 62.2 °F /  16.8 °C 30.35 in /  1027.7 hPa SSW 0.6 mph /  1 km/h 2.3 mph /  3.7 km/h 63 % 0.00 in /  0 mm
14:08 75.5 °F /  24.2 °C 57.2 °F /  14 °C 30.35 in /  1027.7 hPa SSW 0.2 mph /  0.3 km/h 1.2 mph /  1.9 km/h 53 % 0.00 in /  0 mm
14:13 75.5 °F /  24.2 °C 55.6 °F /  13.1 °C 30.35 in /  1027.7 hPa SSW 2.3 mph /  3.7 km/h 3.5 mph /  5.6 km/h 50 % 0.00 in /  0 mm
14:18 75.6 °F /  24.2 °C 55.6 °F /  13.1 °C 30.35 in /  1027.7 hPa Calm   1.2 mph /  1.9 km/h 50 % 0.00 in /  0 mm
14:23 75.8 °F /  24.3 °C 54.7 °F /  12.6 °C 30.35 in /  1027.7 hPa SE 1.0 mph /  1.6 km/h 5.0 mph /  8 km/h 48 % 0.00 in /  0 mm
14:28 75.9 °F /  24.4 °C 55.9 °F /  13.3 °C 30.35 in /  1027.7 hPa Calm   1.0 mph /  1.6 km/h 50 % 0.00 in /  0 mm
14:33 76.0 °F /  24.4 °C 54.3 °F /  12.4 °C 30.35 in /  1027.7 hPa SW 2.3 mph /  3.7 km/h 3.5 mph /  5.6 km/h 47 % 0.00 in /  0 mm
14:38 76.1 °F /  24.5 °C 52.0 °F /  11.1 °C 30.34 in /  1027.3 hPa SSW 0.7 mph /  1.1 km/h 3.5 mph /  5.6 km/h 43 % 0.00 in /  0 mm
14:43 76.1 °F /  24.5 °C 54.4 °F /  12.4 °C 30.34 in /  1027.3 hPa SSW 0.3 mph /  0.5 km/h 2.3 mph /  3.7 km/h 47 % 0.00 in /  0 mm
14:54 75.6 °F /  24.2 °C 53.4 °F /  11.9 °C 30.34 in /  1027.3 hPa SE 1.6 mph /  2.6 km/h 6.9 mph /  11.1 km/h 46 % 0.00 in /  0 mm
14:59 75.4 °F /  24.1 °C 54.3 °F /  12.4 °C 30.34 in /  1027.3 hPa SE 0.3 mph /  0.5 km/h 2.0 mph /  3.2 km/h 48 % 0.00 in /  0 mm
15:04 75.4 °F /  24.1 °C 54.9 °F /  12.7 °C 30.34 in /  1027.3 hPa Calm   1.2 mph /  1.9 km/h 49 % 0.00 in /  0 mm
15:09 75.4 °F /  24.1 °C 52.6 °F /  11.4 °C 30.34 in /  1027.3 hPa South 1.4 mph /  2.3 km/h 3.5 mph /  5.6 km/h 45 % 0.00 in /  0 mm
15:14 75.3 °F /  24.1 °C 53.7 °F /  12.1 °C 30.34 in /  1027.3 hPa South 0.2 mph /  0.3 km/h 1.2 mph /  1.9 km/h 47 % 0.00 in /  0 mm
15:19 75.3 °F /  24.1 °C 53.1 °F /  11.7 °C 30.34 in /  1027.3 hPa SE 1.6 mph /  2.6 km/h 4.6 mph /  7.4 km/h 46 % 0.00 in /  0 mm
15:24 75.0 °F /  23.9 °C 51.6 °F /  10.9 °C 30.35 in /  1027.7 hPa SSE 2.0 mph /  3.2 km/h 3.5 mph /  5.6 km/h 44 % 0.00 in /  0 mm
15:29 74.7 °F /  23.7 °C 53.1 °F /  11.7 °C 30.35 in /  1027.7 hPa Calm     47 % 0.00 in /  0 mm
15:34 74.5 °F /  23.6 °C 51.8 °F /  11 °C 30.35 in /  1027.7 hPa SW 2.1 mph /  3.4 km/h 4.6 mph /  7.4 km/h 45 % 0.00 in /  0 mm
15:39 74.2 °F /  23.4 °C 52.1 °F /  11.2 °C 30.35 in /  1027.7 hPa Calm     46 % 0.00 in /  0 mm
15:44 74.0 °F /  23.3 °C 52.5 °F /  11.4 °C 30.35 in /  1027.7 hPa SE 0.4 mph /  0.6 km/h 3.0 mph /  4.8 km/h 47 % 0.00 in /  0 mm
15:49 73.8 °F /  23.2 °C 52.9 °F /  11.6 °C 30.35 in /  1027.7 hPa Calm   1.0 mph /  1.6 km/h 48 % 0.00 in /  0 mm
15:54 73.5 °F /  23.1 °C 50.9 °F /  10.5 °C 30.35 in /  1027.7 hPa Calm     45 % 0.00 in /  0 mm
15:59 73.3 °F /  22.9 °C 51.8 °F /  11 °C 30.35 in /  1027.7 hPa Calm   1.2 mph /  1.9 km/h 47 % 0.00 in /  0 mm
16:04 73.2 °F /  22.9 °C 52.3 °F /  11.3 °C 30.35 in /  1027.7 hPa SE 0.1 mph /  0.2 km/h 1.0 mph /  1.6 km/h 48 % 0.00 in /  0 mm
16:09 72.9 °F /  22.7 °C 51.5 °F /  10.8 °C 30.35 in /  1027.7 hPa Calm     47 % 0.00 in /  0 mm
16:15 72.7 °F /  22.6 °C 51.9 °F /  11.1 °C 30.35 in /  1027.7 hPa Calm     48 % 0.00 in /  0 mm
16:20 72.5 °F /  22.5 °C 52.2 °F /  11.2 °C 30.35 in /  1027.7 hPa SE 0.2 mph /  0.3 km/h 1.0 mph /  1.6 km/h 49 % 0.00 in /  0 mm
16:25 72.3 °F /  22.4 °C 52.1 °F /  11.2 °C 30.35 in /  1027.7 hPa SE 1.5 mph /  2.4 km/h 3.0 mph /  4.8 km/h 49 % 0.00 in /  0 mm
16:30 72.1 °F /  22.3 °C 53.5 °F /  11.9 °C 30.35 in /  1027.7 hPa SE 0.1 mph /  0.2 km/h 1.2 mph /  1.9 km/h 52 % 0.00 in /  0 mm
16:35 71.9 °F /  22.2 °C 52.8 °F /  11.6 °C 30.35 in /  1027.7 hPa SE 0.1 mph /  0.2 km/h 1.2 mph /  1.9 km/h 51 % 0.00 in /  0 mm
16:40 71.6 °F /  22 °C 53.0 °F /  11.7 °C 30.35 in /  1027.7 hPa Calm   2.3 mph /  3.7 km/h 52 % 0.00 in /  0 mm
16:45 71.3 °F /  21.8 °C 52.8 °F /  11.6 °C 30.35 in /  1027.7 hPa Calm   2.3 mph /  3.7 km/h 52 % 0.00 in /  0 mm
16:50 71.0 °F /  21.7 °C 52.5 °F /  11.4 °C 30.35 in /  1027.7 hPa SE 0.2 mph /  0.3 km/h 3.5 mph /  5.6 km/h 52 % 0.00 in /  0 mm
16:55 70.6 °F /  21.4 °C 53.6 °F /  12 °C 30.35 in /  1027.7 hPa Calm     55 % 0.00 in /  0 mm
17:00 70.4 °F /  21.3 °C 53.0 °F /  11.7 °C 30.35 in /  1027.7 hPa Calm   3.5 mph /  5.6 km/h 54 % 0.00 in /  0 mm
17:05 70.2 °F /  21.2 °C 53.8 °F /  12.1 °C 30.35 in /  1027.7 hPa SE 0.1 mph /  0.2 km/h 2.0 mph /  3.2 km/h 56 % 0.00 in /  0 mm
17:10 70.0 °F /  21.1 °C 52.6 °F /  11.4 °C 30.34 in /  1027.3 hPa SE 0.2 mph /  0.3 km/h 3.5 mph /  5.6 km/h 54 % 0.00 in /  0 mm
17:15 69.8 °F /  21 °C 52.9 °F /  11.6 °C 30.34 in /  1027.3 hPa Calm   1.2 mph /  1.9 km/h 55 % 0.00 in /  0 mm
17:20 69.6 °F /  20.9 °C 52.2 °F /  11.2 °C 30.34 in /  1027.3 hPa Calm   1.0 mph /  1.6 km/h 54 % 0.00 in /  0 mm
17:25 69.3 °F /  20.7 °C 52.4 °F /  11.3 °C 30.34 in /  1027.3 hPa Calm     55 % 0.00 in /  0 mm
17:30 69.2 °F /  20.7 °C 52.8 °F /  11.6 °C 30.34 in /  1027.3 hPa Calm   1.2 mph /  1.9 km/h 56 % 0.00 in /  0 mm
17:35 68.9 °F /  20.5 °C 53.0 °F /  11.7 °C 30.34 in /  1027.3 hPa SE 0.2 mph /  0.3 km/h 2.0 mph /  3.2 km/h 57 % 0.00 in /  0 mm
17:40 68.7 °F /  20.4 °C 53.3 °F /  11.8 °C 30.34 in /  1027.3 hPa Calm     58 % 0.00 in /  0 mm
17:50 68.2 °F /  20.1 °C 52.9 °F /  11.6 °C 30.34 in /  1027.3 hPa Calm     58 % 0.00 in /  0 mm
17:51 68.1 °F /  20.1 °C 52.8 °F /  11.6 °C 30.34 in /  1027.3 hPa SE 0.1 mph /  0.2 km/h 1.2 mph /  1.9 km/h 58 % 0.00 in /  0 mm
17:56 67.9 °F /  19.9 °C 53.0 °F /  11.7 °C 30.34 in /  1027.3 hPa Calm     59 % 0.00 in /  0 mm
18:01 67.7 °F /  19.8 °C 53.3 °F /  11.8 °C 30.34 in /  1027.3 hPa Calm     60 % 0.00 in /  0 mm
18:06 67.5 °F /  19.7 °C 53.6 °F /  12 °C 30.34 in /  1027.3 hPa Calm     61 % 0.00 in /  0 mm
18:12 67.3 °F /  19.6 °C 53.8 °F /  12.1 °C 30.34 in /  1027.3 hPa Calm     62 % 0.00 in /  0 mm
18:17 66.9 °F /  19.4 °C 53.5 °F /  11.9 °C 30.34 in /  1027.3 hPa Calm     62 % 0.00 in /  0 mm
18:22 66.6 °F /  19.2 °C 53.6 °F /  12 °C 30.35 in /  1027.7 hPa Calm     63 % 0.00 in /  0 mm
18:27 66.1 °F /  18.9 °C 53.6 °F /  12 °C 30.35 in /  1027.7 hPa Calm   1.2 mph /  1.9 km/h 64 % 0.00 in /  0 mm
18:32 65.8 °F /  18.8 °C 53.7 °F /  12.1 °C 30.36 in /  1028 hPa Calm     65 % 0.00 in /  0 mm
18:37 65.4 °F /  18.6 °C 53.7 °F /  12.1 °C 30.35 in /  1027.7 hPa Calm     66 % 0.00 in /  0 mm
18:47 64.8 °F /  18.2 °C 53.6 °F /  12 °C 30.36 in /  1028 hPa Calm     67 % 0.00 in /  0 mm
18:52 64.5 °F /  18.1 °C 53.7 °F /  12.1 °C 30.36 in /  1028 hPa Calm     68 % 0.00 in /  0 mm
18:57 64.1 °F /  17.8 °C 53.7 °F /  12.1 °C 30.36 in /  1028 hPa Calm     69 % 0.00 in /  0 mm
19:02 63.8 °F /  17.7 °C 53.4 °F /  11.9 °C 30.36 in /  1028 hPa Calm     69 % 0.00 in /  0 mm
19:07 63.5 °F /  17.5 °C 53.5 °F /  11.9 °C 30.36 in /  1028 hPa Calm     70 % 0.00 in /  0 mm
19:12 63.1 °F /  17.3 °C 53.9 °F /  12.2 °C 30.36 in /  1028 hPa Calm     72 % 0.00 in /  0 mm
19:22 62.3 °F /  16.8 °C 53.5 °F /  11.9 °C 30.36 in /  1028 hPa Calm     73 % 0.00 in /  0 mm
19:27 61.9 °F /  16.6 °C 53.5 °F /  11.9 °C 30.36 in /  1028 hPa Calm     74 % 0.00 in /  0 mm
19:32 61.6 °F /  16.4 °C 53.6 °F /  12 °C 30.35 in /  1027.7 hPa Calm     75 % 0.00 in /  0 mm
19:38 61.3 °F /  16.3 °C 54.0 °F /  12.2 °C 30.35 in /  1027.7 hPa Calm   1.2 mph /  1.9 km/h 77 % 0.00 in /  0 mm
19:43 60.9 °F /  16.1 °C 53.6 °F /  12 °C 30.35 in /  1027.7 hPa Calm   1.2 mph /  1.9 km/h 77 % 0.00 in /  0 mm
19:48 60.7 °F /  15.9 °C 53.8 °F /  12.1 °C 30.36 in /  1028 hPa SE 0.2 mph /  0.3 km/h 1.2 mph /  1.9 km/h 78 % 0.00 in /  0 mm
19:53 60.4 °F /  15.8 °C 53.9 °F /  12.2 °C 30.35 in /  1027.7 hPa Calm   1.2 mph /  1.9 km/h 79 % 0.00 in /  0 mm
19:58 60.2 °F /  15.7 °C 54.0 °F /  12.2 °C 30.36 in /  1028 hPa Calm     80 % 0.00 in /  0 mm
20:03 59.9 °F /  15.5 °C 54.1 °F /  12.3 °C 30.36 in /  1028 hPa Calm     81 % 0.00 in /  0 mm
20:08 59.7 °F /  15.4 °C 53.9 °F /  12.2 °C 30.36 in /  1028 hPa Calm     81 % 0.00 in /  0 mm
20:13 59.5 °F /  15.3 °C 53.7 °F /  12.1 °C 30.36 in /  1028 hPa SE 0.1 mph /  0.2 km/h 1.2 mph /  1.9 km/h 81 % 0.00 in /  0 mm
20:18 59.3 °F /  15.2 °C 53.5 °F /  11.9 °C 30.36 in /  1028 hPa Calm   1.2 mph /  1.9 km/h 81 % 0.00 in /  0 mm
20:24 59.1 °F /  15.1 °C 53.6 °F /  12 °C 30.36 in /  1028 hPa SE 0.1 mph /  0.2 km/h   82 % 0.00 in /  0 mm
20:29 58.9 °F /  14.9 °C 53.7 °F /  12.1 °C 30.36 in /  1028 hPa Calm     83 % 0.00 in /  0 mm
20:34 58.8 °F /  14.9 °C 54.0 °F /  12.2 °C 30.36 in /  1028 hPa Calm     84 % 0.00 in /  0 mm
20:36 58.8 °F /  14.9 °C 54.3 °F /  12.4 °C 30.36 in /  1028 hPa Calm     85 % 0.00 in /  0 mm
20:41 58.7 °F /  14.8 °C 54.2 °F /  12.3 °C 30.36 in /  1028 hPa Calm     85 % 0.00 in /  0 mm
20:46 58.5 °F /  14.7 °C 54.0 °F /  12.2 °C 30.36 in /  1028 hPa Calm     85 % 0.00 in /  0 mm
20:51 58.4 °F /  14.7 °C 53.9 °F /  12.2 °C 30.36 in /  1028 hPa Calm     85 % 0.00 in /  0 mm
20:56 58.2 °F /  14.6 °C 54.0 °F /  12.2 °C 30.36 in /  1028 hPa SE 1.0 mph /  1.6 km/h 2.3 mph /  3.7 km/h 86 % 0.00 in /  0 mm
21:01 58.1 °F /  14.5 °C 53.9 °F /  12.2 °C 30.36 in /  1028 hPa SE 0.8 mph /  1.3 km/h 2.3 mph /  3.7 km/h 86 % 0.00 in /  0 mm
21:06 57.9 °F /  14.4 °C 53.7 °F /  12.1 °C 30.36 in /  1028 hPa SE 0.6 mph /  1 km/h 1.2 mph /  1.9 km/h 86 % 0.00 in /  0 mm
21:11 57.7 °F /  14.3 °C 53.5 °F /  11.9 °C 30.36 in /  1028 hPa SE 0.1 mph /  0.2 km/h 1.2 mph /  1.9 km/h 86 % 0.00 in /  0 mm
21:16 57.6 °F /  14.2 °C 53.4 °F /  11.9 °C 30.36 in /  1028 hPa SE 0.1 mph /  0.2 km/h 1.2 mph /  1.9 km/h 86 % 0.00 in /  0 mm
21:21 57.5 °F /  14.2 °C 53.7 °F /  12.1 °C 30.37 in /  1028.3 hPa SE 0.3 mph /  0.5 km/h 1.2 mph /  1.9 km/h 87 % 0.00 in /  0 mm
21:26 57.4 °F /  14.1 °C 53.6 °F /  12 °C 30.36 in /  1028 hPa Calm   1.2 mph /  1.9 km/h 87 % 0.00 in /  0 mm
21:31 57.4 °F /  14.1 °C 54.2 °F /  12.3 °C 30.36 in /  1028 hPa SE 0.1 mph /  0.2 km/h 1.2 mph /  1.9 km/h 89 % 0.00 in /  0 mm
21:37 57.4 °F /  14.1 °C 54.2 °F /  12.3 °C 30.36 in /  1028 hPa Calm   1.2 mph /  1.9 km/h 89 % 0.00 in /  0 mm
21:42 57.3 °F /  14.1 °C 54.4 °F /  12.4 °C 30.37 in /  1028.3 hPa Calm     90 % 0.00 in /  0 mm
21:47 57.3 °F /  14.1 °C 54.4 °F /  12.4 °C 30.36 in /  1028 hPa Calm     90 % 0.00 in /  0 mm
21:52 57.3 °F /  14.1 °C 54.4 °F /  12.4 °C 30.36 in /  1028 hPa Calm     90 % 0.00 in /  0 mm
21:57 57.3 °F /  14.1 °C 54.4 °F /  12.4 °C 30.36 in /  1028 hPa Calm   1.2 mph /  1.9 km/h 90 % 0.00 in /  0 mm
22:02 57.3 °F /  14.1 °C 54.7 °F /  12.6 °C 30.36 in /  1028 hPa Calm     91 % 0.00 in /  0 mm
22:07 57.3 °F /  14.1 °C 54.7 °F /  12.6 °C 30.36 in /  1028 hPa Calm     91 % 0.00 in /  0 mm
22:12 57.3 °F /  14.1 °C 55.0 °F /  12.8 °C 30.37 in /  1028.3 hPa Calm     92 % 0.00 in /  0 mm
22:17 57.3 °F /  14.1 °C 55.0 °F /  12.8 °C 30.37 in /  1028.3 hPa Calm     92 % 0.00 in /  0 mm
22:22 57.3 °F /  14.1 °C 55.0 °F /  12.8 °C 30.37 in /  1028.3 hPa Calm     92 % 0.00 in /  0 mm
22:27 57.3 °F /  14.1 °C 55.0 °F /  12.8 °C 30.37 in /  1028.3 hPa Calm     92 % 0.00 in /  0 mm
22:32 57.3 °F /  14.1 °C 55.0 °F /  12.8 °C 30.37 in /  1028.3 hPa Calm     92 % 0.00 in /  0 mm
22:37 57.3 °F /  14.1 °C 55.0 °F /  12.8 °C 30.37 in /  1028.3 hPa Calm     92 % 0.00 in /  0 mm
22:42 57.2 °F /  14 °C 54.9 °F /  12.7 °C 30.38 in /  1028.7 hPa Calm     92 % 0.00 in /  0 mm
22:47 57.2 °F /  14 °C 54.9 °F /  12.7 °C 30.37 in /  1028.3 hPa Calm     92 % 0.00 in /  0 mm
22:52 57.1 °F /  13.9 °C 54.8 °F /  12.7 °C 30.37 in /  1028.3 hPa SE 0.1 mph /  0.2 km/h 1.2 mph /  1.9 km/h 92 % 0.00 in /  0 mm
22:57 57.0 °F /  13.9 °C 54.4 °F /  12.4 °C 30.37 in /  1028.3 hPa Calm   1.2 mph /  1.9 km/h 91 % 0.00 in /  0 mm
23:03 57.0 °F /  13.9 °C 54.4 °F /  12.4 °C 30.37 in /  1028.3 hPa Calm     91 % 0.00 in /  0 mm
23:08 56.9 °F /  13.8 °C 54.6 °F /  12.6 °C 30.36 in /  1028 hPa Calm     92 % 0.00 in /  0 mm
23:13 56.9 °F /  13.8 °C 54.6 °F /  12.6 °C 30.37 in /  1028.3 hPa SE 0.2 mph /  0.3 km/h 1.2 mph /  1.9 km/h 92 % 0.00 in /  0 mm
23:18 56.8 °F /  13.8 °C 54.5 °F /  12.5 °C 30.37 in /  1028.3 hPa Calm   1.2 mph /  1.9 km/h 92 % 0.00 in /  0 mm
23:24 56.8 °F /  13.8 °C 54.5 °F /  12.5 °C 30.37 in /  1028.3 hPa SE 0.2 mph /  0.3 km/h   92 % 0.00 in /  0 mm
23:29 56.7 °F /  13.7 °C 54.4 °F /  12.4 °C 30.37 in /  1028.3 hPa SE 0.1 mph /  0.2 km/h 1.2 mph /  1.9 km/h 92 % 0.00 in /  0 mm
23:34 56.7 °F /  13.7 °C 54.4 °F /  12.4 °C 30.37 in /  1028.3 hPa Calm     92 % 0.00 in /  0 mm
23:39 56.7 °F /  13.7 °C 54.4 °F /  12.4 °C 30.36 in /  1028 hPa Calm     92 % 0.00 in /  0 mm
23:44 56.6 °F /  13.7 °C 54.3 °F /  12.4 °C 30.36 in /  1028 hPa Calm     92 % 0.00 in /  0 mm
23:48 56.6 °F /  13.7 °C 54.3 °F /  12.4 °C 30.37 in /  1028.3 hPa Calm   1.2 mph /  1.9 km/h 92 % 0.00 in /  0 mm
23:53 56.6 °F /  13.7 °C 54.3 °F /  12.4 °C 30.36 in /  1028 hPa Calm     92 % 0.00 in /  0 mm
23:58 56.5 °F /  13.6 °C 54.5 °F /  12.5 °C 30.36 in /  1028 hPa Calm     93 % 0.00 in /  0 mm
Crab Meadow Weather
Compliments of Weather Underground - 3 mb

Script developed by  Jim McMurry - jmcmurry@mwt.net Adapted for the template by  Wim van der Kuil - Leuven-Template.eu

Recycling: The average household throws away 13,000 separate pieces of paper each year. Most is packaging and junk mail.